sensor_id;sensor_type;location;lat;lon;timestamp;P1;durP1;ratioP1;P2;durP2;ratioP2
359;SDS011;168;48.872;9.226;2023-10-08T00:01:43;7.53;;;5.37;;
359;SDS011;168;48.872;9.226;2023-10-08T00:04:11;8.60;;;6.23;;
359;SDS011;168;48.872;9.226;2023-10-08T00:06:44;8.50;;;5.77;;
359;SDS011;168;48.872;9.226;2023-10-08T00:09:13;7.83;;;6.00;;
359;SDS011;168;48.872;9.226;2023-10-08T00:11:41;7.50;;;5.30;;
359;SDS011;168;48.872;9.226;2023-10-08T00:14:08;7.93;;;4.93;;
359;SDS011;168;48.872;9.226;2023-10-08T00:16:36;10.83;;;6.17;;
359;SDS011;168;48.872;9.226;2023-10-08T00:19:05;7.67;;;5.70;;
359;SDS011;168;48.872;9.226;2023-10-08T00:21:39;7.97;;;6.10;;
359;SDS011;168;48.872;9.226;2023-10-08T00:24:10;8.03;;;5.83;;
359;SDS011;168;48.872;9.226;2023-10-08T00:26:40;7.00;;;5.40;;
359;SDS011;168;48.872;9.226;2023-10-08T00:29:08;7.77;;;5.40;;
359;SDS011;168;48.872;9.226;2023-10-08T00:31:42;7.43;;;5.20;;
359;SDS011;168;48.872;9.226;2023-10-08T00:34:10;9.73;;;6.00;;
359;SDS011;168;48.872;9.226;2023-10-08T00:36:39;7.30;;;5.67;;
359;SDS011;168;48.872;9.226;2023-10-08T00:39:08;8.27;;;5.97;;
359;SDS011;168;48.872;9.226;2023-10-08T00:41:41;7.87;;;5.97;;
359;SDS011;168;48.872;9.226;2023-10-08T00:44:09;9.63;;;5.70;;
359;SDS011;168;48.872;9.226;2023-10-08T00:46:39;8.13;;;5.93;;
359;SDS011;168;48.872;9.226;2023-10-08T00:49:13;6.43;;;5.33;;
359;SDS011;168;48.872;9.226;2023-10-08T00:51:51;6.93;;;4.93;;
359;SDS011;168;48.872;9.226;2023-10-08T00:54:43;8.27;;;5.40;;
359;SDS011;168;48.872;9.226;2023-10-08T00:57:22;9.90;;;5.60;;
359;SDS011;168;48.872;9.226;2023-10-08T00:59:52;9.97;;;5.70;;
359;SDS011;168;48.872;9.226;2023-10-08T01:02:19;6.43;;;5.37;;
359;SDS011;168;48.872;9.226;2023-10-08T01:04:51;7.70;;;5.87;;
359;SDS011;168;48.872;9.226;2023-10-08T01:07:17;6.93;;;5.33;;
359;SDS011;168;48.872;9.226;2023-10-08T01:09:45;8.10;;;5.40;;
359;SDS011;168;48.872;9.226;2023-10-08T01:12:17;9.30;;;5.73;;
359;SDS011;168;48.872;9.226;2023-10-08T01:14:50;7.47;;;5.33;;
359;SDS011;168;48.872;9.226;2023-10-08T01:17:20;7.20;;;5.60;;
359;SDS011;168;48.872;9.226;2023-10-08T01:19:50;7.40;;;6.00;;
359;SDS011;168;48.872;9.226;2023-10-08T01:22:23;9.50;;;5.10;;
359;SDS011;168;48.872;9.226;2023-10-08T01:24:54;7.67;;;5.30;;
359;SDS011;168;48.872;9.226;2023-10-08T01:27:23;6.67;;;4.90;;
359;SDS011;168;48.872;9.226;2023-10-08T01:29:53;6.23;;;4.57;;
359;SDS011;168;48.872;9.226;2023-10-08T01:32:20;7.63;;;5.40;;
359;SDS011;168;48.872;9.226;2023-10-08T01:34:48;7.23;;;5.30;;
359;SDS011;168;48.872;9.226;2023-10-08T01:37:16;7.90;;;5.60;;
359;SDS011;168;48.872;9.226;2023-10-08T01:39:45;9.07;;;5.47;;
359;SDS011;168;48.872;9.226;2023-10-08T01:42:15;7.37;;;6.10;;
359;SDS011;168;48.872;9.226;2023-10-08T01:44:44;9.33;;;5.80;;
359;SDS011;168;48.872;9.226;2023-10-08T01:47:13;7.43;;;5.30;;
359;SDS011;168;48.872;9.226;2023-10-08T01:49:41;8.77;;;5.67;;
359;SDS011;168;48.872;9.226;2023-10-08T01:52:10;7.67;;;5.50;;
359;SDS011;168;48.872;9.226;2023-10-08T01:54:44;7.60;;;5.63;;
359;SDS011;168;48.872;9.226;2023-10-08T01:57:12;8.80;;;5.50;;
359;SDS011;168;48.872;9.226;2023-10-08T01:59:40;7.67;;;5.70;;
359;SDS011;168;48.872;9.226;2023-10-08T02:02:08;7.70;;;5.57;;
359;SDS011;168;48.872;9.226;2023-10-08T02:04:35;9.40;;;5.40;;
359;SDS011;168;48.872;9.226;2023-10-08T02:07:02;6.50;;;4.80;;
359;SDS011;168;48.872;9.226;2023-10-08T02:09:33;8.20;;;5.00;;
359;SDS011;168;48.872;9.226;2023-10-08T02:12:02;7.27;;;5.20;;
359;SDS011;168;48.872;9.226;2023-10-08T02:14:30;7.13;;;5.10;;
359;SDS011;168;48.872;9.226;2023-10-08T02:17:01;6.83;;;5.30;;
359;SDS011;168;48.872;9.226;2023-10-08T02:19:31;8.00;;;5.60;;
359;SDS011;168;48.872;9.226;2023-10-08T02:22:01;8.73;;;5.47;;
359;SDS011;168;48.872;9.226;2023-10-08T02:24:31;7.27;;;5.80;;
359;SDS011;168;48.872;9.226;2023-10-08T02:26:58;7.73;;;5.60;;
359;SDS011;168;48.872;9.226;2023-10-08T02:29:28;8.20;;;5.83;;
359;SDS011;168;48.872;9.226;2023-10-08T02:31:56;8.70;;;6.07;;
359;SDS011;168;48.872;9.226;2023-10-08T02:34:24;7.17;;;5.00;;
359;SDS011;168;48.872;9.226;2023-10-08T02:36:52;7.60;;;5.33;;
359;SDS011;168;48.872;9.226;2023-10-08T02:39:20;8.07;;;5.80;;
359;SDS011;168;48.872;9.226;2023-10-08T02:41:51;8.23;;;5.23;;
359;SDS011;168;48.872;9.226;2023-10-08T02:44:22;7.60;;;5.23;;
359;SDS011;168;48.872;9.226;2023-10-08T02:46:51;9.03;;;5.50;;
359;SDS011;168;48.872;9.226;2023-10-08T02:49:20;7.47;;;5.40;;
359;SDS011;168;48.872;9.226;2023-10-08T02:51:49;8.50;;;6.30;;
359;SDS011;168;48.872;9.226;2023-10-08T02:54:19;7.90;;;6.07;;
359;SDS011;168;48.872;9.226;2023-10-08T02:56:49;6.40;;;5.13;;
359;SDS011;168;48.872;9.226;2023-10-08T02:59:20;7.90;;;4.90;;
359;SDS011;168;48.872;9.226;2023-10-08T03:01:48;6.10;;;5.00;;
359;SDS011;168;48.872;9.226;2023-10-08T03:04:22;6.63;;;5.40;;
359;SDS011;168;48.872;9.226;2023-10-08T03:06:53;7.27;;;5.80;;
359;SDS011;168;48.872;9.226;2023-10-08T03:09:21;10.93;;;5.97;;
359;SDS011;168;48.872;9.226;2023-10-08T03:11:51;9.67;;;5.80;;
359;SDS011;168;48.872;9.226;2023-10-08T03:14:19;9.10;;;6.37;;
359;SDS011;168;48.872;9.226;2023-10-08T03:16:49;8.40;;;6.00;;
359;SDS011;168;48.872;9.226;2023-10-08T03:19:17;8.60;;;6.40;;
359;SDS011;168;48.872;9.226;2023-10-08T03:21:47;8.53;;;6.30;;
359;SDS011;168;48.872;9.226;2023-10-08T03:24:16;8.90;;;6.27;;
359;SDS011;168;48.872;9.226;2023-10-08T03:27:02;7.73;;;6.17;;
359;SDS011;168;48.872;9.226;2023-10-08T03:29:38;7.37;;;5.70;;
359;SDS011;168;48.872;9.226;2023-10-08T03:32:07;9.63;;;6.10;;
359;SDS011;168;48.872;9.226;2023-10-08T03:34:43;8.13;;;5.70;;
359;SDS011;168;48.872;9.226;2023-10-08T03:37:13;6.33;;;5.07;;
359;SDS011;168;48.872;9.226;2023-10-08T03:39:54;8.17;;;5.77;;
359;SDS011;168;48.872;9.226;2023-10-08T03:42:48;8.73;;;5.97;;
359;SDS011;168;48.872;9.226;2023-10-08T03:45:16;8.33;;;5.57;;
359;SDS011;168;48.872;9.226;2023-10-08T03:47:48;7.90;;;5.80;;
359;SDS011;168;48.872;9.226;2023-10-08T03:50:29;8.03;;;5.70;;
359;SDS011;168;48.872;9.226;2023-10-08T03:53:07;8.60;;;6.17;;
359;SDS011;168;48.872;9.226;2023-10-08T03:55:37;6.93;;;5.50;;
359;SDS011;168;48.872;9.226;2023-10-08T03:58:07;9.57;;;7.10;;
359;SDS011;168;48.872;9.226;2023-10-08T04:00:37;9.63;;;6.67;;
359;SDS011;168;48.872;9.226;2023-10-08T04:03:08;6.83;;;6.13;;
359;SDS011;168;48.872;9.226;2023-10-08T04:05:37;9.30;;;6.67;;
359;SDS011;168;48.872;9.226;2023-10-08T04:08:26;9.90;;;6.17;;
359;SDS011;168;48.872;9.226;2023-10-08T04:11:08;9.97;;;6.30;;
359;SDS011;168;48.872;9.226;2023-10-08T04:13:48;8.17;;;5.83;;
359;SDS011;168;48.872;9.226;2023-10-08T04:16:16;7.77;;;5.70;;
359;SDS011;168;48.872;9.226;2023-10-08T04:18:45;8.80;;;6.50;;
359;SDS011;168;48.872;9.226;2023-10-08T04:21:17;9.10;;;6.07;;
359;SDS011;168;48.872;9.226;2023-10-08T04:23:48;9.73;;;6.40;;
359;SDS011;168;48.872;9.226;2023-10-08T04:26:18;8.77;;;6.20;;
359;SDS011;168;48.872;9.226;2023-10-08T04:28:49;7.70;;;5.80;;
359;SDS011;168;48.872;9.226;2023-10-08T04:31:20;9.60;;;6.33;;
359;SDS011;168;48.872;9.226;2023-10-08T04:33:50;7.53;;;6.10;;
359;SDS011;168;48.872;9.226;2023-10-08T04:36:18;7.37;;;6.13;;
359;SDS011;168;48.872;9.226;2023-10-08T04:38:45;8.07;;;5.90;;
359;SDS011;168;48.872;9.226;2023-10-08T04:41:19;7.60;;;5.27;;
359;SDS011;168;48.872;9.226;2023-10-08T04:43:53;8.93;;;6.63;;
359;SDS011;168;48.872;9.226;2023-10-08T04:46:21;8.63;;;6.23;;
359;SDS011;168;48.872;9.226;2023-10-08T04:49:12;9.00;;;6.20;;
359;SDS011;168;48.872;9.226;2023-10-08T04:51:54;7.83;;;6.07;;
359;SDS011;168;48.872;9.226;2023-10-08T04:54:25;8.33;;;5.73;;
359;SDS011;168;48.872;9.226;2023-10-08T04:56:56;8.47;;;6.43;;
359;SDS011;168;48.872;9.226;2023-10-08T04:59:25;8.70;;;6.10;;
359;SDS011;168;48.872;9.226;2023-10-08T05:01:58;8.10;;;6.00;;
359;SDS011;168;48.872;9.226;2023-10-08T05:04:45;8.77;;;5.70;;
359;SDS011;168;48.872;9.226;2023-10-08T05:07:22;7.80;;;5.93;;
359;SDS011;168;48.872;9.226;2023-10-08T05:10:05;7.50;;;5.53;;
359;SDS011;168;48.872;9.226;2023-10-08T05:12:57;7.80;;;5.90;;
359;SDS011;168;48.872;9.226;2023-10-08T05:15:41;8.13;;;5.53;;
359;SDS011;168;48.872;9.226;2023-10-08T05:18:27;7.00;;;5.27;;
359;SDS011;168;48.872;9.226;2023-10-08T05:21:15;10.07;;;6.33;;
359;SDS011;168;48.872;9.226;2023-10-08T05:23:51;10.27;;;6.20;;
359;SDS011;168;48.872;9.226;2023-10-08T05:26:36;8.33;;;5.30;;
359;SDS011;168;48.872;9.226;2023-10-08T05:29:11;9.57;;;6.53;;
359;SDS011;168;48.872;9.226;2023-10-08T05:31:58;7.63;;;5.80;;
359;SDS011;168;48.872;9.226;2023-10-08T05:34:39;11.77;;;6.00;;
359;SDS011;168;48.872;9.226;2023-10-08T05:37:16;8.90;;;6.60;;
359;SDS011;168;48.872;9.226;2023-10-08T05:39:58;7.40;;;5.60;;
359;SDS011;168;48.872;9.226;2023-10-08T05:42:39;9.87;;;6.10;;
359;SDS011;168;48.872;9.226;2023-10-08T05:45:12;8.37;;;6.40;;
359;SDS011;168;48.872;9.226;2023-10-08T05:47:55;8.10;;;5.70;;
359;SDS011;168;48.872;9.226;2023-10-08T05:50:40;9.33;;;6.43;;
359;SDS011;168;48.872;9.226;2023-10-08T05:53:20;8.20;;;5.90;;
359;SDS011;168;48.872;9.226;2023-10-08T05:56:08;7.30;;;5.60;;
359;SDS011;168;48.872;9.226;2023-10-08T05:58:55;11.00;;;6.90;;
359;SDS011;168;48.872;9.226;2023-10-08T06:01:41;9.20;;;5.87;;
359;SDS011;168;48.872;9.226;2023-10-08T06:04:11;9.60;;;6.50;;
359;SDS011;168;48.872;9.226;2023-10-08T06:07:07;7.73;;;5.80;;
359;SDS011;168;48.872;9.226;2023-10-08T06:09:38;8.37;;;6.43;;
359;SDS011;168;48.872;9.226;2023-10-08T06:12:06;7.87;;;6.10;;
359;SDS011;168;48.872;9.226;2023-10-08T06:14:36;10.53;;;5.90;;
359;SDS011;168;48.872;9.226;2023-10-08T06:17:33;10.77;;;6.90;;
359;SDS011;168;48.872;9.226;2023-10-08T06:20:10;8.00;;;5.97;;
359;SDS011;168;48.872;9.226;2023-10-08T06:22:42;6.93;;;5.57;;
359;SDS011;168;48.872;9.226;2023-10-08T06:25:08;9.10;;;5.90;;
359;SDS011;168;48.872;9.226;2023-10-08T06:27:49;8.73;;;6.33;;
359;SDS011;168;48.872;9.226;2023-10-08T06:30:21;9.67;;;6.37;;
359;SDS011;168;48.872;9.226;2023-10-08T06:32:48;8.87;;;6.00;;
359;SDS011;168;48.872;9.226;2023-10-08T06:35:19;8.67;;;5.63;;
359;SDS011;168;48.872;9.226;2023-10-08T06:37:51;10.63;;;7.17;;
359;SDS011;168;48.872;9.226;2023-10-08T06:40:21;8.57;;;6.37;;
359;SDS011;168;48.872;9.226;2023-10-08T06:43:06;8.67;;;6.20;;
359;SDS011;168;48.872;9.226;2023-10-08T06:45:51;7.33;;;5.50;;
359;SDS011;168;48.872;9.226;2023-10-08T06:48:19;10.07;;;5.87;;
359;SDS011;168;48.872;9.226;2023-10-08T06:50:49;8.30;;;5.57;;
359;SDS011;168;48.872;9.226;2023-10-08T06:53:17;8.80;;;5.30;;
359;SDS011;168;48.872;9.226;2023-10-08T06:55:44;8.50;;;5.40;;
359;SDS011;168;48.872;9.226;2023-10-08T06:58:13;8.90;;;6.33;;
359;SDS011;168;48.872;9.226;2023-10-08T07:00:42;8.90;;;5.63;;
359;SDS011;168;48.872;9.226;2023-10-08T07:03:16;7.77;;;5.80;;
359;SDS011;168;48.872;9.226;2023-10-08T07:05:44;10.53;;;5.83;;
359;SDS011;168;48.872;9.226;2023-10-08T07:08:20;8.40;;;6.03;;
359;SDS011;168;48.872;9.226;2023-10-08T07:10:51;7.17;;;5.80;;
359;SDS011;168;48.872;9.226;2023-10-08T07:13:22;9.30;;;5.90;;
359;SDS011;168;48.872;9.226;2023-10-08T07:15:50;8.20;;;6.47;;
359;SDS011;168;48.872;9.226;2023-10-08T07:18:44;9.90;;;7.00;;
359;SDS011;168;48.872;9.226;2023-10-08T07:21:16;8.43;;;6.60;;
359;SDS011;168;48.872;9.226;2023-10-08T07:23:44;8.60;;;5.97;;
359;SDS011;168;48.872;9.226;2023-10-08T07:26:22;9.77;;;6.00;;
359;SDS011;168;48.872;9.226;2023-10-08T07:28:51;7.67;;;6.13;;
359;SDS011;168;48.872;9.226;2023-10-08T07:31:19;8.35;;;6.22;;
359;SDS011;168;48.872;9.226;2023-10-08T07:33:50;8.63;;;5.90;;
359;SDS011;168;48.872;9.226;2023-10-08T07:36:22;8.90;;;6.20;;
359;SDS011;168;48.872;9.226;2023-10-08T07:38:50;10.37;;;6.07;;
359;SDS011;168;48.872;9.226;2023-10-08T07:41:18;11.07;;;6.33;;
359;SDS011;168;48.872;9.226;2023-10-08T07:43:46;8.50;;;5.47;;
359;SDS011;168;48.872;9.226;2023-10-08T07:46:21;7.67;;;5.40;;
359;SDS011;168;48.872;9.226;2023-10-08T07:48:49;8.90;;;5.20;;
359;SDS011;168;48.872;9.226;2023-10-08T07:51:17;8.53;;;5.80;;
359;SDS011;168;48.872;9.226;2023-10-08T07:53:47;7.80;;;5.43;;
359;SDS011;168;48.872;9.226;2023-10-08T07:56:14;8.87;;;6.10;;
359;SDS011;168;48.872;9.226;2023-10-08T07:58:43;12.80;;;6.80;;
359;SDS011;168;48.872;9.226;2023-10-08T08:01:10;8.00;;;5.53;;
359;SDS011;168;48.872;9.226;2023-10-08T08:03:39;7.87;;;5.37;;
359;SDS011;168;48.872;9.226;2023-10-08T08:06:09;6.80;;;5.37;;
359;SDS011;168;48.872;9.226;2023-10-08T08:08:36;7.70;;;5.67;;
359;SDS011;168;48.872;9.226;2023-10-08T08:11:05;8.83;;;5.70;;
359;SDS011;168;48.872;9.226;2023-10-08T08:13:37;9.30;;;5.83;;
359;SDS011;168;48.872;9.226;2023-10-08T08:16:07;9.20;;;5.53;;
359;SDS011;168;48.872;9.226;2023-10-08T08:18:43;6.60;;;5.10;;
359;SDS011;168;48.872;9.226;2023-10-08T08:21:12;8.63;;;6.20;;
359;SDS011;168;48.872;9.226;2023-10-08T08:23:41;8.53;;;6.23;;
359;SDS011;168;48.872;9.226;2023-10-08T08:26:14;9.00;;;6.43;;
359;SDS011;168;48.872;9.226;2023-10-08T08:28:52;9.00;;;6.50;;
359;SDS011;168;48.872;9.226;2023-10-08T08:31:22;9.53;;;6.53;;
359;SDS011;168;48.872;9.226;2023-10-08T08:33:51;13.80;;;6.50;;
359;SDS011;168;48.872;9.226;2023-10-08T08:36:20;7.93;;;5.27;;
359;SDS011;168;48.872;9.226;2023-10-08T08:38:48;7.53;;;4.90;;
359;SDS011;168;48.872;9.226;2023-10-08T08:41:16;9.20;;;5.10;;
359;SDS011;168;48.872;9.226;2023-10-08T08:43:47;7.73;;;5.00;;
359;SDS011;168;48.872;9.226;2023-10-08T08:46:15;7.33;;;5.37;;
359;SDS011;168;48.872;9.226;2023-10-08T08:48:42;8.73;;;5.93;;
359;SDS011;168;48.872;9.226;2023-10-08T08:51:11;10.40;;;6.83;;
359;SDS011;168;48.872;9.226;2023-10-08T08:53:40;7.17;;;5.50;;
359;SDS011;168;48.872;9.226;2023-10-08T08:56:08;7.37;;;5.50;;
359;SDS011;168;48.872;9.226;2023-10-08T08:58:36;9.65;;;6.50;;
359;SDS011;168;48.872;9.226;2023-10-08T09:01:06;7.80;;;6.43;;
359;SDS011;168;48.872;9.226;2023-10-08T09:03:35;7.57;;;5.37;;
359;SDS011;168;48.872;9.226;2023-10-08T09:06:02;8.80;;;5.63;;
359;SDS011;168;48.872;9.226;2023-10-08T09:08:34;7.93;;;5.10;;
359;SDS011;168;48.872;9.226;2023-10-08T09:11:04;7.80;;;5.63;;
359;SDS011;168;48.872;9.226;2023-10-08T09:13:33;8.07;;;6.07;;
359;SDS011;168;48.872;9.226;2023-10-08T09:16:03;7.63;;;5.43;;
359;SDS011;168;48.872;9.226;2023-10-08T09:18:34;10.07;;;6.67;;
359;SDS011;168;48.872;9.226;2023-10-08T09:21:08;7.57;;;5.20;;
359;SDS011;168;48.872;9.226;2023-10-08T09:23:40;7.70;;;5.50;;
359;SDS011;168;48.872;9.226;2023-10-08T09:26:16;10.00;;;5.23;;
359;SDS011;168;48.872;9.226;2023-10-08T09:28:45;7.33;;;4.87;;
359;SDS011;168;48.872;9.226;2023-10-08T09:31:14;5.10;;;3.90;;
359;SDS011;168;48.872;9.226;2023-10-08T09:33:43;9.23;;;4.80;;
359;SDS011;168;48.872;9.226;2023-10-08T09:36:19;6.87;;;4.53;;
359;SDS011;168;48.872;9.226;2023-10-08T09:38:57;7.10;;;3.83;;
359;SDS011;168;48.872;9.226;2023-10-08T09:41:28;5.93;;;3.30;;
359;SDS011;168;48.872;9.226;2023-10-08T09:43:58;7.60;;;4.13;;
359;SDS011;168;48.872;9.226;2023-10-08T09:46:27;6.23;;;3.93;;
359;SDS011;168;48.872;9.226;2023-10-08T09:48:59;6.40;;;3.40;;
359;SDS011;168;48.872;9.226;2023-10-08T09:51:28;6.60;;;3.73;;
359;SDS011;168;48.872;9.226;2023-10-08T09:54:00;5.90;;;3.73;;
359;SDS011;168;48.872;9.226;2023-10-08T09:56:37;6.07;;;4.07;;
359;SDS011;168;48.872;9.226;2023-10-08T09:59:05;7.07;;;3.70;;
359;SDS011;168;48.872;9.226;2023-10-08T10:01:35;5.77;;;3.40;;
359;SDS011;168;48.872;9.226;2023-10-08T10:04:05;5.10;;;3.40;;
359;SDS011;168;48.872;9.226;2023-10-08T10:06:35;5.27;;;3.80;;
359;SDS011;168;48.872;9.226;2023-10-08T10:09:04;5.43;;;3.40;;
359;SDS011;168;48.872;9.226;2023-10-08T10:11:36;6.23;;;4.07;;
359;SDS011;168;48.872;9.226;2023-10-08T10:14:04;6.70;;;3.80;;
359;SDS011;168;48.872;9.226;2023-10-08T10:16:32;6.20;;;3.80;;
359;SDS011;168;48.872;9.226;2023-10-08T10:19:05;7.10;;;3.70;;
359;SDS011;168;48.872;9.226;2023-10-08T10:21:32;5.63;;;4.10;;
359;SDS011;168;48.872;9.226;2023-10-08T10:24:00;5.30;;;3.87;;
359;SDS011;168;48.872;9.226;2023-10-08T10:26:31;7.00;;;4.10;;
359;SDS011;168;48.872;9.226;2023-10-08T10:31:51;5.60;;;3.60;;
359;SDS011;168;48.872;9.226;2023-10-08T10:34:20;7.03;;;3.77;;
359;SDS011;168;48.872;9.226;2023-10-08T10:36:50;7.53;;;4.03;;
359;SDS011;168;48.872;9.226;2023-10-08T10:39:22;6.00;;;4.17;;
359;SDS011;168;48.872;9.226;2023-10-08T10:41:55;5.57;;;4.03;;
359;SDS011;168;48.872;9.226;2023-10-08T10:44:28;6.33;;;4.10;;
359;SDS011;168;48.872;9.226;2023-10-08T10:46:56;6.50;;;4.27;;
359;SDS011;168;48.872;9.226;2023-10-08T10:49:41;7.40;;;4.03;;
359;SDS011;168;48.872;9.226;2023-10-08T10:52:19;7.23;;;4.13;;
359;SDS011;168;48.872;9.226;2023-10-08T10:54:58;5.73;;;3.53;;
359;SDS011;168;48.872;9.226;2023-10-08T10:57:43;6.17;;;3.80;;
359;SDS011;168;48.872;9.226;2023-10-08T11:00:21;7.13;;;3.60;;
359;SDS011;168;48.872;9.226;2023-10-08T11:03:06;7.13;;;4.57;;
359;SDS011;168;48.872;9.226;2023-10-08T11:05:42;8.80;;;4.93;;
359;SDS011;168;48.872;9.226;2023-10-08T11:08:15;5.20;;;3.97;;
359;SDS011;168;48.872;9.226;2023-10-08T11:10:44;6.33;;;4.73;;
359;SDS011;168;48.872;9.226;2023-10-08T11:13:16;6.97;;;5.20;;
359;SDS011;168;48.872;9.226;2023-10-08T11:15:47;7.60;;;4.40;;
359;SDS011;168;48.872;9.226;2023-10-08T11:18:18;7.03;;;4.03;;
359;SDS011;168;48.872;9.226;2023-10-08T11:20:47;5.53;;;4.00;;
359;SDS011;168;48.872;9.226;2023-10-08T11:23:32;7.00;;;4.13;;
359;SDS011;168;48.872;9.226;2023-10-08T11:26:02;6.87;;;4.03;;
359;SDS011;168;48.872;9.226;2023-10-08T11:28:31;5.43;;;3.93;;
359;SDS011;168;48.872;9.226;2023-10-08T11:31:02;5.33;;;4.80;;
359;SDS011;168;48.872;9.226;2023-10-08T11:33:35;6.20;;;4.33;;
359;SDS011;168;48.872;9.226;2023-10-08T11:36:04;6.40;;;4.40;;
359;SDS011;168;48.872;9.226;2023-10-08T11:38:43;8.47;;;4.27;;
359;SDS011;168;48.872;9.226;2023-10-08T11:41:14;7.77;;;4.73;;
359;SDS011;168;48.872;9.226;2023-10-08T11:43:53;8.33;;;4.43;;
359;SDS011;168;48.872;9.226;2023-10-08T11:46:25;9.17;;;4.70;;
359;SDS011;168;48.872;9.226;2023-10-08T11:48:58;5.10;;;4.20;;
359;SDS011;168;48.872;9.226;2023-10-08T11:51:30;6.80;;;4.07;;
359;SDS011;168;48.872;9.226;2023-10-08T11:53:59;5.83;;;4.50;;
359;SDS011;168;48.872;9.226;2023-10-08T11:56:26;7.43;;;4.30;;
359;SDS011;168;48.872;9.226;2023-10-08T11:58:55;10.20;;;4.67;;
359;SDS011;168;48.872;9.226;2023-10-08T12:01:24;5.43;;;4.10;;
359;SDS011;168;48.872;9.226;2023-10-08T12:03:52;6.27;;;4.17;;
359;SDS011;168;48.872;9.226;2023-10-08T12:06:25;5.37;;;3.80;;
359;SDS011;168;48.872;9.226;2023-10-08T12:08:55;6.00;;;4.70;;
359;SDS011;168;48.872;9.226;2023-10-08T12:11:24;9.40;;;5.03;;
359;SDS011;168;48.872;9.226;2023-10-08T12:13:56;7.10;;;4.43;;
359;SDS011;168;48.872;9.226;2023-10-08T12:16:29;6.40;;;4.20;;
359;SDS011;168;48.872;9.226;2023-10-08T12:19:01;9.23;;;4.80;;
359;SDS011;168;48.872;9.226;2023-10-08T12:21:41;6.40;;;4.60;;
359;SDS011;168;48.872;9.226;2023-10-08T12:24:11;8.70;;;4.43;;
359;SDS011;168;48.872;9.226;2023-10-08T12:26:39;8.90;;;4.40;;
359;SDS011;168;48.872;9.226;2023-10-08T12:29:11;5.40;;;4.30;;
359;SDS011;168;48.872;9.226;2023-10-08T12:31:41;6.90;;;4.67;;
359;SDS011;168;48.872;9.226;2023-10-08T12:34:13;6.00;;;4.40;;
359;SDS011;168;48.872;9.226;2023-10-08T12:36:40;6.40;;;4.40;;
359;SDS011;168;48.872;9.226;2023-10-08T12:39:08;7.07;;;4.47;;
359;SDS011;168;48.872;9.226;2023-10-08T12:41:40;8.50;;;4.87;;
359;SDS011;168;48.872;9.226;2023-10-08T12:44:09;6.43;;;4.77;;
359;SDS011;168;48.872;9.226;2023-10-08T12:46:37;7.93;;;5.20;;
359;SDS011;168;48.872;9.226;2023-10-08T12:49:06;7.10;;;4.40;;
359;SDS011;168;48.872;9.226;2023-10-08T12:51:33;5.93;;;4.27;;
359;SDS011;168;48.872;9.226;2023-10-08T12:54:01;7.43;;;4.50;;
359;SDS011;168;48.872;9.226;2023-10-08T12:56:32;6.50;;;4.67;;
359;SDS011;168;48.872;9.226;2023-10-08T12:59:05;7.17;;;4.43;;
359;SDS011;168;48.872;9.226;2023-10-08T13:01:33;6.40;;;4.40;;
359;SDS011;168;48.872;9.226;2023-10-08T13:04:01;6.20;;;4.47;;
359;SDS011;168;48.872;9.226;2023-10-08T13:06:34;7.27;;;4.47;;
359;SDS011;168;48.872;9.226;2023-10-08T13:09:03;8.93;;;4.60;;
359;SDS011;168;48.872;9.226;2023-10-08T13:11:38;9.80;;;5.10;;
359;SDS011;168;48.872;9.226;2023-10-08T13:14:05;10.33;;;4.43;;
359;SDS011;168;48.872;9.226;2023-10-08T13:16:33;9.23;;;4.50;;
359;SDS011;168;48.872;9.226;2023-10-08T13:19:03;8.10;;;4.20;;
359;SDS011;168;48.872;9.226;2023-10-08T13:21:35;11.33;;;4.73;;
359;SDS011;168;48.872;9.226;2023-10-08T13:24:03;8.50;;;4.70;;
359;SDS011;168;48.872;9.226;2023-10-08T13:26:34;10.73;;;5.80;;
359;SDS011;168;48.872;9.226;2023-10-08T13:29:03;8.70;;;4.23;;
359;SDS011;168;48.872;9.226;2023-10-08T13:31:31;10.30;;;5.00;;
359;SDS011;168;48.872;9.226;2023-10-08T13:34:01;8.80;;;4.93;;
359;SDS011;168;48.872;9.226;2023-10-08T13:36:35;8.80;;;4.20;;
359;SDS011;168;48.872;9.226;2023-10-08T13:39:05;9.03;;;4.30;;
359;SDS011;168;48.872;9.226;2023-10-08T13:41:35;11.63;;;4.80;;
359;SDS011;168;48.872;9.226;2023-10-08T13:44:04;10.13;;;4.70;;
359;SDS011;168;48.872;9.226;2023-10-08T13:46:32;7.47;;;4.77;;
359;SDS011;168;48.872;9.226;2023-10-08T13:49:01;5.40;;;3.60;;
359;SDS011;168;48.872;9.226;2023-10-08T13:51:31;9.43;;;4.87;;
359;SDS011;168;48.872;9.226;2023-10-08T13:54:02;7.40;;;4.00;;
359;SDS011;168;48.872;9.226;2023-10-08T13:56:32;7.33;;;4.03;;
359;SDS011;168;48.872;9.226;2023-10-08T13:59:03;6.23;;;4.07;;
359;SDS011;168;48.872;9.226;2023-10-08T14:01:37;6.90;;;4.40;;
359;SDS011;168;48.872;9.226;2023-10-08T14:04:06;6.37;;;3.93;;
359;SDS011;168;48.872;9.226;2023-10-08T14:06:35;9.67;;;4.13;;
359;SDS011;168;48.872;9.226;2023-10-08T14:09:05;6.43;;;4.43;;
359;SDS011;168;48.872;9.226;2023-10-08T14:11:34;7.93;;;4.40;;
359;SDS011;168;48.872;9.226;2023-10-08T14:14:02;7.90;;;4.17;;
359;SDS011;168;48.872;9.226;2023-10-08T14:16:33;7.40;;;3.90;;
359;SDS011;168;48.872;9.226;2023-10-08T14:19:01;10.13;;;5.03;;
359;SDS011;168;48.872;9.226;2023-10-08T14:21:30;9.40;;;5.00;;
359;SDS011;168;48.872;9.226;2023-10-08T14:24:02;10.50;;;4.10;;
359;SDS011;168;48.872;9.226;2023-10-08T14:26:32;6.73;;;4.37;;
359;SDS011;168;48.872;9.226;2023-10-08T14:29:01;11.73;;;4.97;;
359;SDS011;168;48.872;9.226;2023-10-08T14:31:36;8.40;;;4.10;;
359;SDS011;168;48.872;9.226;2023-10-08T14:34:04;6.53;;;4.30;;
359;SDS011;168;48.872;9.226;2023-10-08T14:36:44;8.17;;;5.27;;
359;SDS011;168;48.872;9.226;2023-10-08T14:39:29;8.90;;;5.60;;
359;SDS011;168;48.872;9.226;2023-10-08T14:42:16;9.23;;;5.57;;
359;SDS011;168;48.872;9.226;2023-10-08T14:45:15;7.83;;;4.93;;
359;SDS011;168;48.872;9.226;2023-10-08T14:47:44;9.53;;;4.93;;
359;SDS011;168;48.872;9.226;2023-10-08T14:50:12;7.47;;;3.93;;
359;SDS011;168;48.872;9.226;2023-10-08T14:52:42;8.20;;;5.20;;
359;SDS011;168;48.872;9.226;2023-10-08T14:55:10;10.00;;;5.80;;
359;SDS011;168;48.872;9.226;2023-10-08T14:57:39;8.37;;;5.07;;
359;SDS011;168;48.872;9.226;2023-10-08T15:00:08;13.37;;;6.43;;
359;SDS011;168;48.872;9.226;2023-10-08T15:02:36;13.33;;;5.80;;
359;SDS011;168;48.872;9.226;2023-10-08T15:05:04;6.40;;;5.03;;
359;SDS011;168;48.872;9.226;2023-10-08T15:07:32;9.33;;;4.30;;
359;SDS011;168;48.872;9.226;2023-10-08T15:10:00;7.77;;;4.73;;
359;SDS011;168;48.872;9.226;2023-10-08T15:12:27;6.93;;;4.80;;
359;SDS011;168;48.872;9.226;2023-10-08T15:15:01;10.47;;;5.50;;
359;SDS011;168;48.872;9.226;2023-10-08T15:17:38;7.03;;;4.23;;
359;SDS011;168;48.872;9.226;2023-10-08T15:20:07;9.30;;;4.57;;
359;SDS011;168;48.872;9.226;2023-10-08T15:22:40;11.83;;;5.17;;
359;SDS011;168;48.872;9.226;2023-10-08T15:25:09;7.00;;;4.00;;
359;SDS011;168;48.872;9.226;2023-10-08T15:27:37;12.63;;;5.63;;
359;SDS011;168;48.872;9.226;2023-10-08T15:30:08;10.17;;;4.70;;
359;SDS011;168;48.872;9.226;2023-10-08T15:32:38;9.10;;;5.20;;
359;SDS011;168;48.872;9.226;2023-10-08T15:35:06;7.80;;;4.53;;
359;SDS011;168;48.872;9.226;2023-10-08T15:37:35;7.07;;;4.47;;
359;SDS011;168;48.872;9.226;2023-10-08T15:40:03;8.30;;;4.93;;
359;SDS011;168;48.872;9.226;2023-10-08T15:42:32;8.00;;;4.70;;
359;SDS011;168;48.872;9.226;2023-10-08T15:45:00;7.80;;;4.20;;
359;SDS011;168;48.872;9.226;2023-10-08T15:47:30;7.30;;;4.60;;
359;SDS011;168;48.872;9.226;2023-10-08T15:49:58;9.20;;;5.37;;
359;SDS011;168;48.872;9.226;2023-10-08T15:52:25;8.33;;;4.67;;
359;SDS011;168;48.872;9.226;2023-10-08T15:54:53;8.70;;;4.60;;
359;SDS011;168;48.872;9.226;2023-10-08T15:57:20;6.40;;;3.90;;
359;SDS011;168;48.872;9.226;2023-10-08T15:59:47;7.50;;;4.07;;
359;SDS011;168;48.872;9.226;2023-10-08T16:02:15;7.07;;;4.57;;
359;SDS011;168;48.872;9.226;2023-10-08T16:04:45;8.93;;;4.97;;
359;SDS011;168;48.872;9.226;2023-10-08T16:07:12;7.77;;;5.13;;
359;SDS011;168;48.872;9.226;2023-10-08T16:09:39;6.70;;;4.20;;
359;SDS011;168;48.872;9.226;2023-10-08T16:12:07;6.53;;;4.93;;
359;SDS011;168;48.872;9.226;2023-10-08T16:14:35;8.67;;;4.80;;
359;SDS011;168;48.872;9.226;2023-10-08T16:17:02;7.17;;;4.70;;